Time;durP1;ratioP1;P1;durP2;ratioP2;P2;SDS_P1;SDS_P2;PMS_P1;PMS_P2;Temp;Humidity;BMP_temperature;BMP_pressure;BME280_temperature;BME280_humidity;BME280_pressure;Samples;Min_cycle;Max_cycle;Signal;HPM_P1;HPM_P2
2022/01/06 00:01:05;;;;;;;20.40;2.60;;;4.60;99.90;;;;;;6166984;23;20017;-93
2022/01/06 00:03:31;;;;;;;23.30;2.95;;;4.60;99.90;;;;;;6166676;23;20016;-91
2022/01/06 00:05:58;;;;;;;19.70;3.17;;;4.60;99.90;;;;;;6166512;23;20027;-93
2022/01/06 00:08:24;;;;;;;22.05;3.35;;;4.60;99.90;;;;;;6166553;23;20016;-94
2022/01/06 00:10:51;;;;;;;23.23;3.43;;;4.60;99.90;;;;;;6166934;23;20019;-92
2022/01/06 00:13:23;;;;;;;23.48;2.95;;;4.60;99.90;;;;;;6166613;23;20023;-92
2022/01/06 00:18:49;;;;;;;21.87;3.90;;;4.70;99.90;;;;;;6190970;23;20048;-91
2022/01/06 00:23:57;;;;;;;18.10;2.78;;;4.60;99.90;;;;;;6190979;23;20017;-89
2022/01/06 00:26:22;;;;;;;24.00;2.70;;;4.60;99.90;;;;;;6166076;23;20103;-92
2022/01/06 00:28:48;;;;;;;26.37;3.40;;;4.50;99.90;;;;;;6192276;23;20013;-91
2022/01/06 00:31:14;;;;;;;27.27;3.73;;;4.50;99.90;;;;;;6167700;23;20012;-95
2022/01/06 00:33:40;;;;;;;27.10;2.90;;;4.40;99.90;;;;;;6193478;23;20460;-93
2022/01/06 00:36:08;;;;;;;18.50;2.80;;;4.30;99.90;;;;;;6171114;23;20462;-91
2022/01/06 00:38:34;;;;;;;16.43;2.73;;;4.30;99.90;;;;;;6167912;23;20013;-90
2022/01/06 00:41:00;;;;;;;22.03;3.17;;;4.30;99.90;;;;;;6191271;23;20017;-89
2022/01/06 00:43:26;;;;;;;18.93;2.37;;;4.30;99.90;;;;;;6166298;23;20401;-92
2022/01/06 00:45:51;;;;;;;11.53;2.40;;;4.20;99.90;;;;;;6166531;23;20095;-91
2022/01/06 00:48:17;;;;;;;18.40;2.93;;;4.20;99.90;;;;;;6166978;23;20013;-92
2022/01/06 00:50:43;;;;;;;13.97;2.00;;;4.20;99.90;;;;;;6165904;23;20017;-90
2022/01/06 00:53:09;;;;;;;14.43;2.10;;;4.10;99.90;;;;;;6165556;23;20347;-94
2022/01/06 00:55:37;;;;;;;14.57;1.97;;;4.10;99.90;;;;;;6190335;23;20020;-89
2022/01/06 00:58:04;;;;;;;8.90;1.65;;;4.10;99.90;;;;;;6165176;23;20100;-91
2022/01/06 01:00:38;;;;;;;;;;;4.10;99.90;;;;;;6166116;23;20402;-92
2022/01/06 01:03:15;;;;;;;10.98;1.33;;;4.10;99.90;;;;;;6190460;23;20288;-89
2022/01/06 01:05:43;;;;;;;14.55;1.40;;;4.00;99.90;;;;;;6165827;23;20059;-88
2022/01/06 01:08:09;;;;;;;13.00;1.60;;;4.00;99.90;;;;;;6190816;23;20017;-89
2022/01/06 01:10:35;;;;;;;10.10;1.42;;;3.90;99.90;;;;;;6165718;23;20056;-89
2022/01/06 01:13:02;;;;;;;8.40;1.48;;;3.90;99.90;;;;;;6166209;23;20067;-88
2022/01/06 01:15:28;;;;;;;8.60;1.20;;;3.90;99.90;;;;;;6165450;23;20025;-88
2022/01/06 01:18:04;;;;;;;9.27;1.13;;;3.80;99.90;;;;;;6191134;23;20021;-91
2022/01/06 01:20:29;;;;;;;9.05;1.30;;;3.80;99.90;;;;;;6159293;23;20358;-96
2022/01/06 01:22:55;;;;;;;8.57;1.47;;;3.70;99.90;;;;;;6184577;23;20080;-93
2022/01/06 01:25:21;;;;;;;10.47;1.37;;;3.70;99.90;;;;;;6184972;23;20021;-96
2022/01/06 01:27:46;;;;;;;12.90;2.27;;;3.60;99.90;;;;;;6159755;23;20013;-88
2022/01/06 01:30:14;;;;;;;12.07;1.30;;;3.60;99.90;;;;;;6162488;23;20100;-96
2022/01/06 01:32:46;;;;;;;11.18;1.67;;;3.50;99.90;;;;;;6163884;23;20013;-93
2022/01/06 01:35:12;;;;;;;15.02;1.92;;;3.50;99.90;;;;;;6163835;23;20020;-96
2022/01/06 01:37:38;;;;;;;13.90;1.87;;;3.50;99.90;;;;;;6164890;23;20021;-96
2022/01/06 01:40:06;;;;;;;15.15;1.73;;;3.50;99.90;;;;;;6165096;23;20024;-96
2022/01/06 01:42:32;;;;;;;14.63;1.70;;;3.50;99.90;;;;;;6164560;23;20044;-94
2022/01/06 01:44:58;;;;;;;14.60;1.57;;;3.50;99.90;;;;;;6164765;23;20021;-96
2022/01/06 01:47:37;;;;;;;14.97;1.90;;;3.50;99.90;;;;;;6164134;23;20020;-90
2022/01/06 01:50:15;;;;;;;9.85;1.40;;;3.50;99.90;;;;;;6189968;23;20013;-96
2022/01/06 01:52:53;;;;;;;13.43;1.27;;;3.50;99.90;;;;;;6196865;23;20021;-92
2022/01/06 01:55:24;;;;;;;;;;;3.50;99.90;;;;;;6196154;23;20013;-95
2022/01/06 01:57:50;;;;;;;14.75;1.35;;;3.50;99.90;;;;;;6174408;23;19916;-96
2022/01/06 02:05:28;;;;;;;9.50;1.45;;;3.60;99.90;;;;;;6104886;23;1195196;-89
2022/01/06 02:07:58;;;;;;;9.88;1.17;;;3.50;99.90;;;;;;6130902;23;20017;-91
2022/01/06 02:10:24;;;;;;;12.10;1.00;;;3.50;99.90;;;;;;6106135;23;20021;-91
2022/01/06 02:12:53;;;;;;;7.43;1.30;;;3.50;99.90;;;;;;6106284;23;20013;-89
2022/01/06 02:15:19;;;;;;;11.95;1.48;;;3.50;99.90;;;;;;6106516;23;20018;-90
2022/01/06 02:18:09;;;;;;;13.27;1.57;;;3.40;99.90;;;;;;6106823;23;20024;-90
2022/01/06 02:20:35;;;;;;;10.13;1.17;;;3.40;99.90;;;;;;6106238;23;20018;-89
2022/01/06 02:23:00;;;;;;;8.17;1.57;;;3.40;99.90;;;;;;6106576;23;20017;-94
2022/01/06 02:25:31;;;;;;;6.93;1.47;;;3.40;99.90;;;;;;6106624;23;20029;-90
2022/01/06 02:28:00;;;;;;;16.38;1.55;;;3.40;99.90;;;;;;6106454;23;20439;-92
2022/01/06 02:30:27;;;;;;;10.27;1.50;;;3.40;99.90;;;;;;6106956;23;20075;-94
2022/01/06 02:32:54;;;;;;;14.90;2.67;;;3.40;99.90;;;;;;6106874;23;20014;-94
2022/01/06 02:35:22;;;;;;;10.85;1.60;;;3.40;99.90;;;;;;6106913;23;20010;-91
2022/01/06 02:37:49;;;;;;;10.13;1.80;;;3.40;99.90;;;;;;6106642;23;20104;-95
2022/01/06 02:40:20;;;;;;;13.20;1.85;;;3.40;99.90;;;;;;6131535;23;20021;-91
2022/01/06 02:42:49;;;;;;;15.38;2.10;;;3.40;99.90;;;;;;6108017;23;20056;-94
2022/01/06 02:45:16;;;;;;;17.40;2.00;;;3.40;99.90;;;;;;6106841;23;20355;-95
2022/01/06 02:47:43;;;;;;;19.35;2.70;;;3.40;99.90;;;;;;6106528;23;20050;-89
2022/01/06 02:50:10;;;;;;;14.40;2.15;;;3.50;99.90;;;;;;6106877;23;20101;-92
2022/01/06 02:52:36;;;;;;;16.67;2.28;;;3.50;99.90;;;;;;6106581;23;20014;-91
2022/01/06 02:55:04;;;;;;;15.32;2.00;;;3.40;99.90;;;;;;6106070;23;20096;-89
2022/01/06 02:57:29;;;;;;;13.77;1.90;;;3.40;99.90;;;;;;6105989;23;20012;-94
2022/01/06 02:59:55;;;;;;;15.93;2.50;;;3.40;99.90;;;;;;6106120;23;20052;-92
2022/01/06 03:02:21;;;;;;;18.33;2.30;;;3.40;99.90;;;;;;6106111;23;20016;-94
2022/01/06 03:04:47;;;;;;;14.77;2.30;;;3.30;99.90;;;;;;6129799;23;20017;-91
2022/01/06 03:07:12;;;;;;;21.83;3.20;;;3.30;99.90;;;;;;6105621;23;20029;-93
2022/01/06 03:09:40;;;;;;;15.40;2.33;;;3.30;99.90;;;;;;6105825;23;20470;-89
2022/01/06 03:12:11;;;;;;;13.07;2.28;;;3.30;99.90;;;;;;6130257;23;20020;-95
2022/01/06 03:14:37;;;;;;;13.00;1.98;;;3.20;99.90;;;;;;6105873;23;20017;-92
2022/01/06 03:17:04;;;;;;;21.83;2.43;;;3.20;99.90;;;;;;6130114;23;20018;-96
2022/01/06 03:19:30;;;;;;;12.32;1.73;;;3.20;99.90;;;;;;6105583;23;20281;-89
2022/01/06 03:21:56;;;;;;;14.30;2.08;;;3.20;99.90;;;;;;6130329;23;20018;-92
2022/01/06 03:24:22;;;;;;;15.80;2.57;;;3.20;99.90;;;;;;6130048;23;20018;-93
2022/01/06 03:26:48;;;;;;;16.93;2.50;;;3.20;99.90;;;;;;6106849;23;20025;-92
2022/01/06 03:29:14;;;;;;;16.30;2.33;;;3.20;99.90;;;;;;6131155;23;20017;-90
2022/01/06 03:31:40;;;;;;;17.60;2.15;;;3.20;99.90;;;;;;6106842;23;20056;-91
2022/01/06 03:34:05;;;;;;;19.05;2.42;;;3.10;99.90;;;;;;6106658;23;20013;-93
2022/01/06 03:36:31;;;;;;;19.27;2.50;;;3.10;99.90;;;;;;6131217;23;20024;-93
2022/01/06 03:38:57;;;;;;;27.73;3.83;;;3.10;99.90;;;;;;6106828;23;20052;-90
2022/01/06 03:41:23;;;;;;;22.50;2.77;;;3.20;99.90;;;;;;6106044;23;20022;-92
2022/01/06 03:43:48;;;;;;;18.13;3.13;;;3.10;99.90;;;;;;6129370;23;20017;-90
2022/01/06 03:46:14;;;;;;;16.57;3.07;;;3.20;99.90;;;;;;6129792;23;20027;-93
2022/01/06 03:48:40;;;;;;;21.87;2.37;;;3.10;99.90;;;;;;6129845;23;20100;-90
2022/01/06 03:51:05;;;;;;;18.03;2.20;;;3.10;99.90;;;;;;6130055;23;20021;-92
2022/01/06 03:53:31;;;;;;;15.87;1.83;;;3.10;99.90;;;;;;6105995;23;20015;-95
2022/01/06 03:55:57;;;;;;;19.70;2.43;;;3.10;99.90;;;;;;6111412;23;20451;-91
2022/01/06 03:58:22;;;;;;;27.80;3.43;;;3.00;99.90;;;;;;6112114;23;20025;-92
2022/01/06 04:00:48;;;;;;;15.43;2.33;;;3.00;99.90;;;;;;6081679;23;20018;-92
2022/01/06 04:03:14;;;;;;;24.13;3.50;;;3.00;99.90;;;;;;6105956;23;20060;-96
2022/01/06 04:05:40;;;;;;;18.80;2.77;;;2.90;99.90;;;;;;6081178;23;20026;-95
2022/01/06 04:08:05;;;;;;;10.40;1.97;;;2.90;99.90;;;;;;6071745;23;20034;-90
2022/01/06 04:10:31;;;;;;;20.67;4.27;;;2.90;99.90;;;;;;6071976;23;20065;-89
2022/01/06 04:12:57;;;;;;;18.27;2.40;;;2.80;99.90;;;;;;6095851;23;20064;-92
2022/01/06 04:15:26;;;;;;;18.57;3.67;;;2.80;99.90;;;;;;6096068;23;20018;-91
2022/01/06 04:17:51;;;;;;;15.40;2.53;;;2.80;99.90;;;;;;6095843;23;20342;-92
2022/01/06 04:20:17;;;;;;;19.07;2.23;;;2.70;99.90;;;;;;6095609;23;20026;-89
2022/01/06 04:22:43;;;;;;;21.50;3.40;;;2.70;99.90;;;;;;6071901;23;20019;-91
2022/01/06 04:25:10;;;;;;;18.08;2.42;;;2.70;99.90;;;;;;6071618;23;20101;-89
2022/01/06 04:27:36;;;;;;;17.08;1.95;;;2.60;99.90;;;;;;6095906;23;20014;-94
2022/01/06 04:30:07;;;;;;;19.70;3.23;;;2.60;99.90;;;;;;6047729;23;20018;-90
2022/01/06 04:32:33;;;;;;;19.40;3.45;;;2.60;99.90;;;;;;6048975;23;20026;-88
2022/01/06 04:34:59;;;;;;;17.02;3.28;;;2.60;99.90;;;;;;6049456;23;20045;-91
2022/01/06 04:37:27;;;;;;;17.03;2.73;;;2.60;99.90;;;;;;6073409;23;20365;-89
2022/01/06 04:39:52;;;;;;;22.63;2.75;;;2.60;99.90;;;;;;6073597;23;20010;-90
2022/01/06 04:42:18;;;;;;;22.47;2.70;;;2.60;99.90;;;;;;6073631;23;20101;-90
2022/01/06 04:44:44;;;;;;;22.80;2.97;;;2.60;99.90;;;;;;6049717;23;20020;-90
2022/01/06 04:47:10;;;;;;;13.47;2.13;;;2.50;99.90;;;;;;6049516;23;20029;-89
2022/01/06 04:49:36;;;;;;;21.63;2.57;;;2.50;99.90;;;;;;6049351;23;20023;-93
2022/01/06 04:52:01;;;;;;;13.10;1.93;;;2.40;99.90;;;;;;6049330;23;20023;-90
2022/01/06 04:54:27;;;;;;;12.70;1.70;;;2.50;99.90;;;;;;6049517;23;20025;-90
2022/01/06 04:56:53;;;;;;;12.57;1.80;;;2.40;99.90;;;;;;6049592;23;20021;-90
2022/01/06 04:59:19;;;;;;;16.07;2.77;;;2.40;99.90;;;;;;6049578;23;20078;-90
2022/01/06 05:01:44;;;;;;;20.87;2.67;;;2.40;99.90;;;;;;6049216;23;20026;-90
2022/01/06 05:04:10;;;;;;;21.87;2.50;;;2.30;99.90;;;;;;6051407;23;20018;-89
2022/01/06 05:06:36;;;;;;;19.00;2.50;;;2.40;99.90;;;;;;6106720;23;20049;-89
2022/01/06 05:09:02;;;;;;;14.23;2.10;;;2.40;99.90;;;;;;6106824;23;20017;-89
2022/01/06 05:11:28;;;;;;;16.90;2.47;;;2.50;99.90;;;;;;6131584;23;20092;-92
2022/01/06 05:13:55;;;;;;;16.60;2.17;;;2.40;99.90;;;;;;6106512;23;20099;-91
2022/01/06 05:16:21;;;;;;;14.17;2.30;;;2.40;99.90;;;;;;6106811;23;20017;-90
2022/01/06 05:18:47;;;;;;;16.13;2.28;;;2.30;99.90;;;;;;6106805;23;20344;-90
2022/01/06 05:21:12;;;;;;;18.20;2.83;;;2.30;99.90;;;;;;6106484;23;20021;-89
2022/01/06 05:23:40;;;;;;;13.70;2.53;;;2.20;99.90;;;;;;6106626;23;20474;-89
2022/01/06 05:26:06;;;;;;;13.52;2.08;;;2.20;99.90;;;;;;6131360;23;20053;-96
2022/01/06 05:28:32;;;;;;;12.52;1.60;;;2.10;99.90;;;;;;6107934;23;20351;-90
2022/01/06 05:30:58;;;;;;;14.77;2.10;;;2.10;99.90;;;;;;6132873;23;20025;-90
2022/01/06 05:33:24;;;;;;;24.63;2.73;;;2.10;99.90;;;;;;6110043;23;20402;-91
2022/01/06 05:35:50;;;;;;;21.13;2.75;;;2.10;99.90;;;;;;6132326;23;20022;-96
2022/01/06 05:38:16;;;;;;;17.83;2.28;;;2.10;99.90;;;;;;6107148;23;20469;-90
2022/01/06 05:40:41;;;;;;;14.57;1.90;;;2.10;99.90;;;;;;6107939;23;20018;-90
2022/01/06 05:43:07;;;;;;;13.40;2.80;;;2.10;99.90;;;;;;6130530;23;20355;-91
2022/01/06 05:45:33;;;;;;;10.20;2.13;;;2.10;99.90;;;;;;6130596;23;20018;-92
2022/01/06 05:47:59;;;;;;;16.23;2.20;;;2.10;99.90;;;;;;6106601;23;20014;-90
2022/01/06 05:50:26;;;;;;;17.77;2.33;;;2.00;99.90;;;;;;6106563;23;20020;-93
2022/01/06 05:52:54;;;;;;;21.17;2.58;;;2.00;99.90;;;;;;6106056;23;20076;-90
2022/01/06 05:55:21;;;;;;;16.35;2.30;;;2.00;99.90;;;;;;6106193;23;20428;-89
2022/01/06 05:57:47;;;;;;;13.70;1.98;;;1.90;99.90;;;;;;6106559;23;20056;-92
2022/01/06 06:00:13;;;;;;;17.60;2.20;;;1.90;99.90;;;;;;6106299;23;20108;-89
2022/01/06 06:02:38;;;;;;;12.77;1.90;;;1.90;99.90;;;;;;6130758;23;20088;-90
2022/01/06 06:05:04;;;;;;;17.57;3.30;;;1.90;99.90;;;;;;6125232;23;20057;-89
2022/01/06 06:07:31;;;;;;;12.52;2.42;;;1.90;99.90;;;;;;6101212;23;20037;-89
2022/01/06 06:09:56;;;;;;;14.30;2.47;;;1.90;99.90;;;;;;6101041;23;20018;-92
2022/01/06 06:12:22;;;;;;;17.92;2.78;;;1.90;99.90;;;;;;6101649;23;20321;-89
2022/01/06 06:14:48;;;;;;;16.20;1.97;;;1.90;99.90;;;;;;6100691;23;20021;-93
2022/01/06 06:17:14;;;;;;;13.40;2.37;;;1.90;99.90;;;;;;6125869;23;20014;-88
2022/01/06 06:19:40;;;;;;;18.67;2.20;;;1.90;99.90;;;;;;6125264;23;20028;-88
2022/01/06 06:22:05;;;;;;;24.23;3.73;;;1.80;99.90;;;;;;6125292;23;20018;-88
2022/01/06 06:24:31;;;;;;;15.47;2.63;;;1.80;99.90;;;;;;6100516;23;20096;-90
2022/01/06 06:26:57;;;;;;;17.50;2.43;;;1.80;99.90;;;;;;6100849;23;20018;-92
2022/01/06 06:29:23;;;;;;;20.17;3.30;;;1.70;99.90;;;;;;6125284;23;20073;-89
2022/01/06 06:31:49;;;;;;;12.80;2.20;;;1.70;99.90;;;;;;6100822;23;20052;-92
2022/01/06 06:34:14;;;;;;;12.60;1.90;;;1.70;99.90;;;;;;6125193;23;20022;-89
2022/01/06 06:36:40;;;;;;;13.63;2.10;;;1.70;99.90;;;;;;6101004;23;20080;-89
2022/01/06 06:39:06;;;;;;;18.95;2.72;;;1.70;99.90;;;;;;6125198;23;20046;-88
2022/01/06 06:41:32;;;;;;;21.10;2.70;;;1.70;99.90;;;;;;6125725;23;20069;-89
2022/01/06 06:43:58;;;;;;;17.27;2.53;;;1.70;99.90;;;;;;6100604;23;20018;-90
2022/01/06 06:46:24;;;;;;;22.00;2.57;;;1.70;99.90;;;;;;6125074;23;20026;-89
2022/01/06 06:48:49;;;;;;;14.10;2.73;;;1.70;99.90;;;;;;6100658;23;20017;-93
2022/01/06 06:51:15;;;;;;;18.13;2.30;;;1.70;99.90;;;;;;6125154;23;20028;-88
2022/01/06 06:53:42;;;;;;;19.03;2.77;;;1.60;99.90;;;;;;6100641;23;20436;-88
2022/01/06 06:56:08;;;;;;;20.70;2.30;;;1.70;99.90;;;;;;6124729;23;20025;-91
2022/01/06 06:58:34;;;;;;;15.57;3.45;;;1.70;99.90;;;;;;6125226;23;20074;-91
2022/01/06 07:00:59;;;;;;;20.65;3.30;;;1.70;99.90;;;;;;6125068;23;20101;-89
2022/01/06 07:03:25;;;;;;;17.53;3.13;;;1.70;99.90;;;;;;6126667;23;20076;-89
2022/01/06 07:05:51;;;;;;;19.57;3.23;;;1.70;99.90;;;;;;6100290;23;20388;-88
2022/01/06 07:08:17;;;;;;;19.90;2.50;;;1.70;99.90;;;;;;6100618;23;20285;-94
2022/01/06 07:10:43;;;;;;;20.40;2.33;;;1.70;99.90;;;;;;6100834;23;20463;-88
2022/01/06 07:13:09;;;;;;;14.60;1.92;;;1.70;99.90;;;;;;6125086;23;20050;-88
2022/01/06 07:15:41;;;;;;;19.92;2.85;;;1.70;99.90;;;;;;6125106;23;20472;-89
2022/01/06 07:18:11;;;;;;;18.95;3.05;;;1.60;99.90;;;;;;6100602;23;20018;-89
2022/01/06 07:20:37;;;;;;;23.50;3.00;;;1.60;99.90;;;;;;6100674;23;20017;-89
2022/01/06 07:23:03;;;;;;;16.80;2.78;;;1.60;99.90;;;;;;6100421;23;20018;-88
2022/01/06 07:25:29;;;;;;;15.50;1.90;;;1.60;99.90;;;;;;6100297;23;20069;-88
2022/01/06 07:27:57;;;;;;;15.83;2.57;;;1.60;99.90;;;;;;6100711;23;20014;-89
2022/01/06 07:30:24;;;;;;;19.00;2.30;;;1.60;99.90;;;;;;6125216;23;20097;-92
2022/01/06 07:32:51;;;;;;;15.63;3.13;;;1.60;99.90;;;;;;6100917;23;20101;-90
2022/01/06 07:35:21;;;;;;;18.38;2.17;;;1.50;99.90;;;;;;6100489;23;20055;-91
2022/01/06 07:37:48;;;;;;;16.92;2.58;;;1.60;99.90;;;;;;6101078;23;20018;-88
2022/01/06 07:40:14;;;;;;;15.48;2.15;;;1.60;99.90;;;;;;6124907;23;20101;-88
2022/01/06 07:42:40;;;;;;;10.48;1.90;;;1.50;99.90;;;;;;6100499;23;20018;-92
2022/01/06 07:45:06;;;;;;;14.60;2.03;;;1.50;99.90;;;;;;6100375;23;20016;-90
2022/01/06 07:47:35;;;;;;;16.60;2.60;;;1.40;99.90;;;;;;6100764;23;20096;-90
2022/01/06 07:50:02;;;;;;;14.55;2.60;;;1.40;99.90;;;;;;6125242;23;20018;-90
2022/01/06 07:52:27;;;;;;;19.30;3.15;;;1.40;99.90;;;;;;6124826;23;20022;-88
2022/01/06 07:54:53;;;;;;;17.30;2.95;;;1.40;99.90;;;;;;6100520;23;20017;-88
2022/01/06 07:57:19;;;;;;;17.87;3.43;;;1.50;99.90;;;;;;6124744;23;20005;-89
2022/01/06 07:59:45;;;;;;;15.67;2.00;;;1.50;99.90;;;;;;6100334;23;20018;-89
2022/01/06 08:02:11;;;;;;;20.00;3.30;;;1.60;99.90;;;;;;6100330;23;20339;-88
2022/01/06 08:04:36;;;;;;;22.55;3.72;;;1.60;99.90;;;;;;6125298;23;20096;-88
2022/01/06 08:07:58;;;;;;;16.67;2.73;;;1.70;99.90;;;;;;6106838;23;20025;-94
2022/01/06 08:10:24;;;;;;;17.40;2.35;;;1.70;99.90;;;;;;6106850;23;20028;-94
2022/01/06 08:12:50;;;;;;;18.80;2.83;;;1.70;99.90;;;;;;6107564;23;20013;-88
2022/01/06 08:15:16;;;;;;;22.33;3.53;;;1.80;99.90;;;;;;6130996;23;20406;-88
2022/01/06 08:17:41;;;;;;;20.02;3.55;;;1.80;99.90;;;;;;6131524;23;20097;-89
2022/01/06 08:20:13;;;;;;;15.70;2.67;;;1.80;99.90;;;;;;6131578;23;20036;-93
2022/01/06 08:26:45;;;;;;;19.13;2.90;;;1.80;99.90;;;;;;6158008;23;20359;-93
2022/01/06 08:29:10;;;;;;;23.58;3.17;;;1.80;99.90;;;;;;6131370;23;20474;-91
2022/01/06 08:31:36;;;;;;;17.77;2.78;;;1.80;99.90;;;;;;6107404;23;20014;-89
2022/01/06 08:34:05;;;;;;;22.47;2.50;;;1.90;99.90;;;;;;6107341;23;20021;-89
2022/01/06 08:36:53;;;;;;;16.25;3.40;;;2.00;99.90;;;;;;6107037;23;20028;-90
2022/01/06 08:39:19;;;;;;;20.52;2.45;;;2.10;99.90;;;;;;6107020;23;20053;-92
2022/01/06 08:41:45;;;;;;;17.10;2.60;;;2.10;99.90;;;;;;6107049;23;20068;-90
2022/01/06 08:44:11;;;;;;;12.67;2.27;;;2.20;99.90;;;;;;6106795;23;20029;-92
2022/01/06 08:46:36;;;;;;;15.73;2.90;;;2.30;99.90;;;;;;6107246;23;20076;-88
2022/01/06 08:49:04;;;;;;;16.20;2.45;;;2.40;99.90;;;;;;6106684;23;20021;-88
2022/01/06 08:51:30;;;;;;;15.32;2.42;;;2.50;99.90;;;;;;6106725;23;20466;-93
2022/01/06 08:53:56;;;;;;;10.70;2.00;;;2.50;99.90;;;;;;6131360;23;20017;-89
2022/01/06 08:56:34;;;;;;;16.42;1.88;;;2.60;99.90;;;;;;6107736;23;20020;-91
2022/01/06 08:59:04;;;;;;;12.77;1.55;;;2.60;99.90;;;;;;6106993;23;20025;-92
2022/01/06 09:01:31;;;;;;;13.18;1.95;;;2.60;99.90;;;;;;6107012;23;20070;-91
2022/01/06 09:03:57;;;;;;;13.77;3.03;;;2.70;99.90;;;;;;6107094;23;20018;-90
2022/01/06 09:06:30;;;;;;;16.73;2.10;;;2.70;99.90;;;;;;6101216;23;20026;-94
2022/01/06 09:09:34;;;;;;;12.95;1.58;;;2.70;99.90;;;;;;6102793;23;20399;-94
2022/01/06 09:12:16;;;;;;;12.50;1.92;;;2.80;99.90;;;;;;6103122;23;20022;-93
2022/01/06 09:25:04;;;;;;;16.95;3.30;;;2.90;99.90;;;;;;6184920;23;20025;-91
2022/01/06 09:27:32;;;;;;;16.27;2.80;;;2.90;99.90;;;;;;6136605;23;20465;-91
2022/01/06 09:29:58;;;;;;;17.38;3.20;;;2.90;99.90;;;;;;6136190;23;20052;-93
2022/01/06 09:32:24;;;;;;;14.43;2.65;;;2.90;99.90;;;;;;6136043;23;20466;-90
2022/01/06 09:35:06;;;;;;;18.40;2.42;;;3.00;99.90;;;;;;6135866;23;20017;-91
2022/01/06 09:37:31;;;;;;;21.88;2.97;;;3.00;99.90;;;;;;6136096;23;20013;-91
2022/01/06 09:39:57;;;;;;;19.95;4.35;;;3.00;99.90;;;;;;6136584;23;20528;-89
2022/01/06 09:42:23;;;;;;;16.42;3.33;;;3.00;99.90;;;;;;6186738;23;20068;-89
2022/01/06 09:44:50;;;;;;;26.63;3.77;;;3.00;99.90;;;;;;6135677;23;20060;-89
2022/01/06 09:47:17;;;;;;;18.35;3.08;;;3.10;99.90;;;;;;6135632;23;20359;-90
2022/01/06 09:49:44;;;;;;;22.00;3.95;;;3.10;99.90;;;;;;6136087;23;20017;-88
2022/01/06 09:52:11;;;;;;;;;;;3.10;99.90;;;;;;6135867;23;20055;-90
2022/01/06 09:54:39;;;;;;;19.05;3.50;;;3.10;99.90;;;;;;6160108;23;19920;-91
2022/01/06 09:57:27;;;;;;;22.65;4.97;;;3.10;99.90;;;;;;6135774;23;20438;-90
2022/01/06 09:59:52;;;;;;;24.85;5.85;;;3.10;99.90;;;;;;6135478;23;20020;-89
2022/01/06 10:02:18;;;;;;;23.00;5.07;;;3.20;99.90;;;;;;6135009;23;20013;-88
2022/01/06 10:04:45;;;;;;;21.73;4.07;;;3.20;99.90;;;;;;6159855;23;20021;-92
2022/01/06 10:07:11;;;;;;;;;;;3.20;99.90;;;;;;6160358;23;20017;-92
2022/01/06 10:09:39;;;;;;;18.75;3.42;;;3.30;99.90;;;;;;6135083;23;19920;-88
2022/01/06 10:12:44;;;;;;;25.00;4.55;;;3.30;99.90;;;;;;6135336;23;20013;-88
2022/01/06 10:16:03;;;;;;;23.17;4.05;;;3.40;99.90;;;;;;6135272;23;20017;-89
2022/01/06 10:18:29;;;;;;;18.30;3.50;;;3.40;99.90;;;;;;6135268;23;20091;-92
2022/01/06 10:20:54;;;;;;;21.25;3.65;;;3.50;99.90;;;;;;6135778;23;20056;-89
2022/01/06 10:23:35;;;;;;;25.20;3.70;;;3.50;99.90;;;;;;6186441;23;20039;-88
2022/01/06 10:26:12;;;;;;;20.23;3.65;;;3.60;99.90;;;;;;6159169;23;20017;-90
2022/01/06 10:28:38;;;;;;;27.15;4.13;;;3.70;99.90;;;;;;6185755;23;20477;-89
2022/01/06 10:31:07;;;;;;;17.52;3.92;;;3.70;99.90;;;;;;6135199;23;20021;-95
2022/01/06 10:33:36;;;;;;;30.73;4.53;;;3.80;99.90;;;;;;6186717;23;20090;-92
2022/01/06 10:36:09;;;;;;;24.95;4.25;;;3.80;99.90;;;;;;6192357;23;20040;-91
2022/01/06 10:38:36;;;;;;;29.08;4.90;;;3.90;99.90;;;;;;6161618;23;20051;-92
2022/01/06 10:41:16;;;;;;;23.20;4.00;;;3.90;99.90;;;;;;6186603;23;20101;-91
2022/01/06 10:43:48;;;;;;;25.88;4.55;;;4.00;99.90;;;;;;6185232;23;20451;-92
2022/01/06 10:46:14;;;;;;;24.15;3.45;;;4.00;99.90;;;;;;6186083;23;20459;-90
2022/01/06 10:48:44;;;;;;;29.30;3.60;;;4.10;99.90;;;;;;6186256;23;20024;-94
2022/01/06 10:51:10;;;;;;;18.63;2.65;;;4.20;99.90;;;;;;6160141;23;20028;-91
2022/01/06 10:53:49;;;;;;;22.60;3.50;;;4.20;99.90;;;;;;6160939;23;20021;-91
2022/01/06 10:56:18;;;;;;;22.48;3.40;;;4.20;99.90;;;;;;6186088;23;20017;-94
2022/01/06 10:58:45;;;;;;;18.90;3.42;;;4.30;99.90;;;;;;6188111;23;20104;-92
2022/01/06 11:01:15;;;;;;;20.60;4.47;;;4.30;99.90;;;;;;6185572;23;20021;-91
2022/01/06 11:03:41;;;;;;;24.55;4.22;;;4.30;99.90;;;;;;6186825;23;20017;-93
2022/01/06 11:06:10;;;;;;;21.37;4.30;;;4.40;99.90;;;;;;6158703;23;20394;-94
2022/01/06 11:08:39;;;;;;;18.90;3.65;;;4.40;99.90;;;;;;6160012;23;20016;-93
2022/01/06 11:13:37;;;;;;;22.92;5.07;;;4.60;99.90;;;;;;6185950;23;20100;-90
2022/01/06 11:16:04;;;;;;;19.83;3.83;;;4.60;99.90;;;;;;6187598;23;20056;-89
2022/01/06 11:18:31;;;;;;;20.20;3.97;;;4.60;99.90;;;;;;6138162;23;20021;-91
2022/01/06 11:21:10;;;;;;;24.38;4.25;;;4.70;99.90;;;;;;6169301;23;20112;-91
2022/01/06 11:23:36;;;;;;;20.90;4.05;;;4.70;99.90;;;;;;6163739;23;20091;-92
2022/01/06 11:26:07;;;;;;;19.97;3.90;;;4.80;99.90;;;;;;6169837;23;20043;-91
2022/01/06 11:28:34;;;;;;;16.85;3.55;;;4.90;99.90;;;;;;6171738;23;20017;-90
2022/01/06 11:31:43;;;;;;;18.08;3.22;;;4.90;99.90;;;;;;6174467;23;20028;-87
2022/01/06 11:34:25;;;;;;;15.43;3.60;;;5.00;99.90;;;;;;6169244;23;20028;-88
2022/01/06 11:37:16;;;;;;;15.30;3.53;;;5.00;99.90;;;;;;6172756;23;20075;-96
2022/01/06 11:39:42;;;;;;;22.00;3.53;;;5.10;99.90;;;;;;6141803;23;20024;-93
2022/01/06 11:42:25;;;;;;;20.85;3.33;;;5.10;99.90;;;;;;6194248;23;20051;-93
2022/01/06 11:45:37;;;;;;;20.80;3.20;;;5.10;99.90;;;;;;6188868;23;20013;-90
2022/01/06 11:55:35;;;;;;;24.80;5.90;;;5.20;99.90;;;;;;6155864;23;20021;-90
2022/01/06 11:58:18;;;;;;;27.95;5.07;;;5.20;99.90;;;;;;6132368;23;20018;-95
2022/01/06 12:01:02;;;;;;;20.02;4.55;;;5.30;99.90;;;;;;6132386;23;20052;-95
2022/01/06 12:07:15;;;;;;;24.33;3.90;;;5.30;99.90;;;;;;6156964;23;20028;-96
2022/01/06 12:09:42;;;;;;;15.97;3.33;;;5.40;99.90;;;;;;6107973;23;20045;-93
2022/01/06 12:12:13;;;;;;;16.58;3.13;;;5.40;99.90;;;;;;6133347;23;20018;-92
2022/01/06 12:14:39;;;;;;;19.02;3.00;;;5.50;99.90;;;;;;6115259;23;20017;-96
2022/01/06 12:17:09;;;;;;;18.17;3.60;;;5.50;99.90;;;;;;6144385;23;20017;-93
2022/01/06 12:19:36;;;;;;;19.98;3.28;;;5.50;99.90;;;;;;6137734;23;20052;-94
2022/01/06 12:22:10;;;;;;;20.05;3.08;;;5.60;99.90;;;;;;6141071;23;20022;-91
2022/01/06 12:24:36;;;;;;;18.45;2.70;;;5.60;99.90;;;;;;6193687;23;20027;-89
2022/01/06 12:27:09;;;;;;;22.77;3.93;;;5.60;99.90;;;;;;6202256;23;20028;-87
2022/01/06 12:29:39;;;;;;;15.85;3.00;;;5.60;99.90;;;;;;6199672;23;20024;-96
2022/01/06 12:32:10;;;;;;;18.90;3.03;;;5.70;99.90;;;;;;6194937;23;20020;-93
2022/01/06 12:34:40;;;;;;;16.55;3.78;;;5.70;99.90;;;;;;6203027;23;20016;-87
2022/01/06 12:42:26;;;;;;;17.10;2.53;;;5.80;99.90;;;;;;6198703;23;20021;-88
2022/01/06 12:44:52;;;;;;;18.00;3.42;;;5.90;99.90;;;;;;6171792;23;20025;-93
2022/01/06 12:47:19;;;;;;;16.23;2.47;;;5.90;99.90;;;;;;6172473;23;20020;-96
2022/01/06 12:49:45;;;;;;;;;;;5.90;99.90;;;;;;6172084;23;20111;-87
2022/01/06 12:52:11;;;;;;;18.83;2.75;;;5.90;99.90;;;;;;6196882;23;19924;-88
2022/01/06 12:54:40;;;;;;;19.20;3.40;;;5.90;99.90;;;;;;6173220;23;20024;-96
2022/01/06 12:57:13;;;;;;;20.55;3.25;;;6.00;99.90;;;;;;6173381;23;20048;-87
2022/01/06 12:59:45;;;;;;;18.67;3.30;;;6.00;99.90;;;;;;6181662;23;20031;-87
2022/01/06 13:02:15;;;;;;;20.17;2.53;;;6.00;99.90;;;;;;6179544;23;20019;-86
2022/01/06 13:04:52;;;;;;;22.10;3.40;;;6.00;99.90;;;;;;6205852;23;20009;-87
2022/01/06 13:07:19;;;;;;;20.95;2.85;;;6.00;99.90;;;;;;6113760;23;20332;-92
2022/01/06 13:09:57;;;;;;;18.17;3.20;;;6.00;99.90;;;;;;6146893;23;20077;-86
2022/01/06 13:12:25;;;;;;;17.70;2.67;;;6.00;99.90;;;;;;6150819;23;20053;-88
2022/01/06 13:14:53;;;;;;;20.17;3.28;;;6.00;99.90;;;;;;6148360;23;20478;-88
2022/01/06 13:17:37;;;;;;;17.08;2.70;;;6.00;99.90;;;;;;6141958;23;20028;-92
2022/01/06 13:20:12;;;;;;;20.98;2.85;;;6.00;99.90;;;;;;6142006;23;20018;-86
2022/01/06 13:25:30;;;;;;;16.90;2.88;;;6.00;99.90;;;;;;6158599;23;20343;-94
2022/01/06 13:28:03;;;;;;;16.65;2.53;;;6.00;99.90;;;;;;6134295;23;20132;-91
2022/01/06 13:30:39;;;;;;;18.35;3.30;;;6.00;99.90;;;;;;6167860;23;20021;-95
2022/01/06 13:33:10;;;;;;;14.50;2.67;;;6.00;99.90;;;;;;6132719;23;20498;-96
2022/01/06 13:36:18;;;;;;;13.77;1.88;;;6.00;99.90;;;;;;6137860;23;20048;-92
2022/01/06 13:38:47;;;;;;;23.38;2.35;;;6.00;99.90;;;;;;6143832;23;20022;-95
2022/01/06 13:41:24;;;;;;;15.73;2.40;;;6.00;99.90;;;;;;6154797;23;20021;-96
2022/01/06 13:43:56;;;;;;;16.75;2.83;;;6.00;99.90;;;;;;6136176;23;20028;-92